createdAt,value
2022-12-01T00:02:15.926Z,20.90
2022-12-01T00:05:13.539Z,22.30
2022-12-01T00:08:11.004Z,27.50
2022-12-01T00:11:08.449Z,23.80
2022-12-01T00:14:05.928Z,28.60
2022-12-01T00:17:05.123Z,24.30
2022-12-01T00:20:02.596Z,25.30
2022-12-01T00:23:00.084Z,24.90
2022-12-01T00:25:57.558Z,26.50
2022-12-01T00:28:55.034Z,24.10
2022-12-01T00:31:52.555Z,26.00
2022-12-01T00:34:50.236Z,23.70
2022-12-01T00:37:47.850Z,27.20
2022-12-01T00:40:45.440Z,25.20
2022-12-01T00:43:43.093Z,27.80
2022-12-01T00:46:40.665Z,26.70
2022-12-01T00:49:38.164Z,30.70
2022-12-01T00:52:35.631Z,30.20
2022-12-01T00:55:33.095Z,31.00
2022-12-01T00:58:30.534Z,32.60
2022-12-01T01:01:28.059Z,35.30
2022-12-01T01:04:25.569Z,33.90
2022-12-01T01:07:23.078Z,33.30
2022-12-01T01:10:20.582Z,32.20
2022-12-01T01:13:18.051Z,31.40
2022-12-01T01:16:15.561Z,31.00
2022-12-01T01:19:13.553Z,30.50
2022-12-01T01:22:11.044Z,33.90
2022-12-01T01:25:10.922Z,37.00
2022-12-01T01:28:08.365Z,36.10
2022-12-01T01:31:05.942Z,37.50
2022-12-01T01:34:03.701Z,35.10
2022-12-01T01:37:01.159Z,41.20
2022-12-01T01:39:58.618Z,42.00
2022-12-01T01:42:56.080Z,45.00
2022-12-01T01:45:53.588Z,43.80
2022-12-01T01:48:51.167Z,38.80
2022-12-01T01:51:48.591Z,46.20
2022-12-01T01:54:46.042Z,44.20
2022-12-01T01:57:43.483Z,40.30
2022-12-01T02:00:40.973Z,41.20
2022-12-01T02:03:38.439Z,41.00
2022-12-01T02:06:35.891Z,42.50
2022-12-01T02:09:33.340Z,48.30
2022-12-01T02:12:30.795Z,47.10
2022-12-01T02:15:28.266Z,50.30
2022-12-01T02:18:25.732Z,48.00
2022-12-01T02:21:23.258Z,46.20
2022-12-01T02:24:20.717Z,48.30
2022-12-01T02:27:18.170Z,42.00
2022-12-01T02:30:15.742Z,47.70
2022-12-01T02:33:13.207Z,44.90
2022-12-01T02:36:10.662Z,46.30
2022-12-01T02:39:08.110Z,49.30
2022-12-01T02:42:05.624Z,42.90
2022-12-01T02:45:03.105Z,45.90
2022-12-01T02:48:00.584Z,47.10
2022-12-01T02:50:58.055Z,44.10
2022-12-01T02:53:55.519Z,47.40
2022-12-01T02:56:52.989Z,48.00
2022-12-01T02:59:50.665Z,48.90
2022-12-01T03:02:50.643Z,48.70
2022-12-01T03:05:48.147Z,50.50
2022-12-01T03:08:46.245Z,47.10
2022-12-01T03:11:43.729Z,49.30
2022-12-01T03:14:41.959Z,45.50
2022-12-01T03:17:39.416Z,49.10
2022-12-01T03:20:36.879Z,46.40
2022-12-01T03:23:34.383Z,52.50
2022-12-01T03:26:31.832Z,52.30
2022-12-01T03:29:30.838Z,47.20
2022-12-01T03:32:28.683Z,50.10
2022-12-01T03:35:27.198Z,53.50
2022-12-01T03:38:24.688Z,53.20
2022-12-01T03:41:22.139Z,49.60
2022-12-01T03:44:19.610Z,53.40
2022-12-01T03:47:17.057Z,50.80
2022-12-01T03:50:14.575Z,48.90
2022-12-01T03:53:12.050Z,50.40
2022-12-01T03:56:09.506Z,54.80
2022-12-01T03:59:06.981Z,53.40
2022-12-01T04:02:04.500Z,54.30
2022-12-01T04:05:02.022Z,52.80
2022-12-01T04:07:59.542Z,54.60
2022-12-01T04:10:57.154Z,60.50
2022-12-01T04:13:54.636Z,51.80
2022-12-01T04:16:52.106Z,58.50
2022-12-01T04:19:49.892Z,51.70
2022-12-01T04:22:47.557Z,60.10
2022-12-01T04:25:45.026Z,64.80
2022-12-01T04:28:42.480Z,56.80
2022-12-01T04:31:40.035Z,53.20
2022-12-01T04:34:37.590Z,60.60
2022-12-01T04:37:35.044Z,49.60
2022-12-01T04:40:32.497Z,57.70
2022-12-01T04:43:29.982Z,59.00
2022-12-01T04:46:27.531Z,58.80
2022-12-01T04:49:25.086Z,64.40
2022-12-01T04:52:22.567Z,61.30
2022-12-01T04:55:20.035Z,65.20
2022-12-01T04:58:17.522Z,60.30
2022-12-01T05:01:15.062Z,63.50
2022-12-01T05:04:12.569Z,60.30
2022-12-01T05:07:10.488Z,57.40
2022-12-01T05:10:07.993Z,58.00
2022-12-01T05:13:05.449Z,60.80
2022-12-01T05:16:02.956Z,59.60
2022-12-01T05:19:14.314Z,60.80
2022-12-01T05:22:11.780Z,67.00
2022-12-01T05:25:09.220Z,55.20
2022-12-01T05:28:06.718Z,57.60
2022-12-01T05:31:04.307Z,59.80
2022-12-01T05:34:01.798Z,62.60
2022-12-01T05:36:59.283Z,58.70
2022-12-01T05:39:56.722Z,60.80
2022-12-01T05:42:54.214Z,61.20
2022-12-01T05:45:51.735Z,60.30
2022-12-01T05:48:49.240Z,61.90
2022-12-01T05:51:46.676Z,57.20
2022-12-01T05:54:44.113Z,53.30
2022-12-01T05:57:41.563Z,58.30
2022-12-01T06:00:45.417Z,53.90
2022-12-01T06:03:43.956Z,55.40
2022-12-01T06:06:41.447Z,59.10
2022-12-01T06:09:38.897Z,58.70
2022-12-01T06:12:36.361Z,50.50
2022-12-01T06:15:33.814Z,53.10
2022-12-01T06:18:31.282Z,56.50
2022-12-01T06:21:28.751Z,57.60
2022-12-01T06:24:26.217Z,55.20
2022-12-01T06:27:23.697Z,53.60
2022-12-01T06:30:21.195Z,57.60
2022-12-01T06:33:19.254Z,52.20
2022-12-01T06:36:16.710Z,61.20
2022-12-01T06:39:14.168Z,51.80
2022-12-01T06:42:12.235Z,54.90
2022-12-01T06:45:10.884Z,55.50
2022-12-01T06:48:08.676Z,61.20
2022-12-01T06:51:06.149Z,56.40
2022-12-01T06:54:05.620Z,56.50
2022-12-01T06:57:03.407Z,59.30
2022-12-01T07:00:00.991Z,54.90
2022-12-01T07:02:59.015Z,60.20
2022-12-01T07:05:58.598Z,59.30
2022-12-01T07:08:56.143Z,52.90
2022-12-01T07:11:53.690Z,53.30
2022-12-01T07:14:51.166Z,52.30
2022-12-01T07:17:48.584Z,50.20
2022-12-01T07:20:46.056Z,55.40
2022-12-01T07:23:43.524Z,56.50
2022-12-01T07:26:41.535Z,58.00
2022-12-01T07:29:39.004Z,58.80
2022-12-01T07:32:37.132Z,63.20
2022-12-01T07:35:34.579Z,61.90
2022-12-01T07:38:32.072Z,64.70
2022-12-01T07:41:29.526Z,63.40
2022-12-01T07:44:27.342Z,59.80
2022-12-01T07:47:24.813Z,59.70
2022-12-01T07:50:22.292Z,58.70
2022-12-01T07:53:19.807Z,57.50
2022-12-01T07:56:17.263Z,52.20
2022-12-01T07:59:14.751Z,56.20
2022-12-01T08:02:12.331Z,59.60
2022-12-01T08:05:10.021Z,56.80
2022-12-01T08:08:07.606Z,53.90
2022-12-01T08:11:05.319Z,51.50
2022-12-01T08:14:02.837Z,56.10
2022-12-01T08:17:00.484Z,55.10
2022-12-01T08:19:57.958Z,61.50
2022-12-01T08:22:55.445Z,58.90
2022-12-01T08:25:54.143Z,59.50
2022-12-01T08:28:51.591Z,52.50
2022-12-01T08:31:49.061Z,58.00
2022-12-01T08:34:52.957Z,58.40
2022-12-01T08:37:50.945Z,55.10
2022-12-01T08:40:48.443Z,52.90
2022-12-01T08:44:01.620Z,54.10
2022-12-01T08:46:59.575Z,58.00
2022-12-01T08:49:57.066Z,53.40
2022-12-01T08:52:54.522Z,53.40
2022-12-01T08:55:51.997Z,52.10
2022-12-01T08:58:50.469Z,53.30
2022-12-01T09:01:54.297Z,56.40
2022-12-01T09:04:51.835Z,56.90
2022-12-01T09:08:09.697Z,46.60
2022-12-01T09:11:07.260Z,52.10
2022-12-01T09:14:04.721Z,51.00
2022-12-01T09:17:02.179Z,48.90
2022-12-01T09:19:59.660Z,52.60
2022-12-01T09:22:57.101Z,52.90
2022-12-01T09:25:54.562Z,53.60
2022-12-01T09:28:52.029Z,51.20
2022-12-01T09:31:49.578Z,58.30
2022-12-01T09:34:47.051Z,52.30
2022-12-01T09:37:44.500Z,52.60
2022-12-01T09:40:42.784Z,56.90
2022-12-01T09:43:40.307Z,55.30
2022-12-01T09:46:37.807Z,60.60
2022-12-01T09:49:35.297Z,56.30
2022-12-01T09:52:32.784Z,55.40
2022-12-01T09:55:30.290Z,49.30
2022-12-01T09:58:28.162Z,52.60
2022-12-01T10:01:27.380Z,53.30
2022-12-01T10:04:25.332Z,45.20
2022-12-01T10:07:22.911Z,50.10
2022-12-01T10:10:20.447Z,58.00
2022-12-01T10:13:17.910Z,51.40
2022-12-01T10:16:15.389Z,52.80
2022-12-01T10:19:12.892Z,55.00
2022-12-01T10:22:10.384Z,54.60
2022-12-01T10:25:07.830Z,52.20
2022-12-01T10:28:05.288Z,53.70
2022-12-01T10:31:03.080Z,50.90
2022-12-01T10:34:00.550Z,55.30
2022-12-01T10:36:57.994Z,50.60
2022-12-01T10:39:55.428Z,50.00
2022-12-01T10:42:52.882Z,54.60
2022-12-01T10:45:50.368Z,49.80
2022-12-01T10:48:47.857Z,50.50
2022-12-01T10:51:45.350Z,50.60
2022-12-01T10:54:42.827Z,55.00
2022-12-01T10:57:40.290Z,55.00
2022-12-01T11:03:55.229Z,52.50
2022-12-01T11:06:52.735Z,49.50
2022-12-01T11:09:50.553Z,53.90
2022-12-01T11:12:48.362Z,53.00
2022-12-01T11:15:45.829Z,57.70
2022-12-01T11:18:43.375Z,58.90
2022-12-01T11:21:40.909Z,55.10
2022-12-01T11:24:38.366Z,60.10
2022-12-01T11:27:35.827Z,56.30
2022-12-01T11:30:33.305Z,48.30
2022-12-01T11:33:30.861Z,54.00
2022-12-01T11:36:28.346Z,58.60
2022-12-01T11:39:25.805Z,50.90
2022-12-01T11:42:23.243Z,52.60
2022-12-01T11:45:20.723Z,54.80
2022-12-01T11:48:18.259Z,52.50
2022-12-01T11:51:15.763Z,59.10
2022-12-01T11:54:13.248Z,60.40
2022-12-01T11:57:33.248Z,54.60
2022-12-01T12:00:28.130Z,50.90
2022-12-01T12:03:25.650Z,48.40
2022-12-01T12:09:45.071Z,54.10
2022-12-01T12:12:42.874Z,52.50
2022-12-01T12:15:40.361Z,54.60
2022-12-01T12:18:37.893Z,57.50
2022-12-01T12:21:35.456Z,59.00
2022-12-01T12:24:32.922Z,45.60
2022-12-01T12:27:30.406Z,56.70
2022-12-01T12:30:27.897Z,46.60
2022-12-01T12:33:25.404Z,62.30
2022-12-01T12:36:22.868Z,53.70
2022-12-01T12:39:20.432Z,48.90
2022-12-01T12:42:18.174Z,52.60
2022-12-01T12:45:15.620Z,53.80
2022-12-01T12:48:13.105Z,53.40
2022-12-01T12:51:10.738Z,53.80
2022-12-01T12:54:08.235Z,59.80
2022-12-01T12:57:05.745Z,56.60
2022-12-01T13:00:03.218Z,48.70
2022-12-01T13:03:00.710Z,54.70
2022-12-01T13:05:58.169Z,55.50
2022-12-01T13:08:55.692Z,52.80
2022-12-01T13:11:53.171Z,54.00
2022-12-01T13:14:50.636Z,47.60
2022-12-01T13:17:48.093Z,52.50
2022-12-01T13:20:46.620Z,53.50
2022-12-01T13:23:44.097Z,46.90
2022-12-01T13:26:41.565Z,52.50
2022-12-01T13:29:43.829Z,47.90
2022-12-01T13:32:43.239Z,44.20
2022-12-01T13:35:40.701Z,47.10
2022-12-01T13:38:38.186Z,48.60
2022-12-01T13:41:35.645Z,48.20
2022-12-01T13:44:33.142Z,53.50
2022-12-01T13:47:30.605Z,49.00
2022-12-01T13:50:28.075Z,48.20
2022-12-01T13:53:25.581Z,50.00
2022-12-01T13:56:23.015Z,53.50
2022-12-01T13:59:20.501Z,51.40
2022-12-01T14:02:18.027Z,52.80
2022-12-01T14:05:16.007Z,51.30
2022-12-01T14:08:17.101Z,44.40
2022-12-01T14:11:18.897Z,49.20
2022-12-01T14:14:18.824Z,49.70
2022-12-01T14:17:39.885Z,46.70
2022-12-01T14:20:38.009Z,43.70
2022-12-01T14:23:36.282Z,54.30
2022-12-01T14:26:34.767Z,47.90
2022-12-01T14:29:32.220Z,48.40
2022-12-01T14:32:29.666Z,53.80
2022-12-01T14:35:27.107Z,54.00
2022-12-01T14:38:24.583Z,51.70
2022-12-01T14:41:22.793Z,50.10
2022-12-01T14:44:20.497Z,50.80
2022-12-01T14:47:18.228Z,49.80
2022-12-01T14:50:15.732Z,52.00
2022-12-01T14:53:13.222Z,50.10
2022-12-01T14:56:10.683Z,48.30
2022-12-01T14:59:08.572Z,53.20
2022-12-01T15:02:09.156Z,59.90
2022-12-01T15:05:06.754Z,53.20
2022-12-01T15:08:33.336Z,56.50
2022-12-01T15:11:21.762Z,54.40
2022-12-01T15:14:19.201Z,50.20
2022-12-01T15:17:16.638Z,49.90
2022-12-01T15:20:14.131Z,44.50
2022-12-01T15:23:11.601Z,51.40
2022-12-01T15:26:09.066Z,49.00
2022-12-01T15:29:06.525Z,49.60
2022-12-01T15:32:04.082Z,51.10
2022-12-01T15:35:04.730Z,48.10
2022-12-01T15:38:02.439Z,50.40
2022-12-01T15:41:28.475Z,50.20
2022-12-01T15:44:17.329Z,45.20
2022-12-01T15:47:14.799Z,49.50
2022-12-01T15:50:12.883Z,53.30
2022-12-01T15:53:10.356Z,44.90
2022-12-01T15:56:07.821Z,48.20
2022-12-01T15:59:05.284Z,48.40
2022-12-01T16:02:03.330Z,46.60
2022-12-01T16:05:01.058Z,47.00
2022-12-01T16:08:13.183Z,46.60
2022-12-01T16:11:11.686Z,51.10
2022-12-01T16:14:10.029Z,45.00
2022-12-01T16:17:07.896Z,46.30
2022-12-01T16:20:05.470Z,50.20
2022-12-01T16:23:02.972Z,48.00
2022-12-01T16:26:02.263Z,44.80
2022-12-01T16:29:00.012Z,52.50
2022-12-01T16:32:19.308Z,49.70
2022-12-01T16:35:15.443Z,49.10
2022-12-01T16:38:13.195Z,48.80
2022-12-01T16:41:11.136Z,49.10
2022-12-01T16:44:38.918Z,48.90
2022-12-01T16:47:27.105Z,48.40
2022-12-01T16:50:24.802Z,44.80
2022-12-01T16:53:22.774Z,46.50
2022-12-01T16:56:20.479Z,51.30
2022-12-01T16:59:18.495Z,46.30
2022-12-01T17:02:16.220Z,50.50
2022-12-01T17:05:14.264Z,46.70
2022-12-01T17:08:12.494Z,49.40
2022-12-01T17:11:10.092Z,48.80
2022-12-01T17:14:07.569Z,49.20
2022-12-01T17:17:11.095Z,45.60
2022-12-01T17:20:09.221Z,48.70
2022-12-01T17:23:07.678Z,51.00
2022-12-01T17:26:05.222Z,50.40
2022-12-01T17:29:07.563Z,44.10
2022-12-01T17:32:06.429Z,47.40
2022-12-01T17:35:04.890Z,46.30
2022-12-01T17:38:02.415Z,48.90
2022-12-01T17:41:00.958Z,44.40
2022-12-01T17:44:01.837Z,42.60
2022-12-01T17:46:59.933Z,50.10
2022-12-01T17:49:57.882Z,44.80
2022-12-01T17:52:58.647Z,43.90
2022-12-01T17:55:56.351Z,48.20
2022-12-01T17:58:54.637Z,44.10
2022-12-01T18:01:52.647Z,44.60
2022-12-01T18:04:52.251Z,43.30
2022-12-01T18:07:51.404Z,41.90
2022-12-01T18:10:49.525Z,45.60
2022-12-01T18:13:47.436Z,43.80
2022-12-01T18:16:44.930Z,44.90
2022-12-01T18:19:43.190Z,44.90
2022-12-01T18:22:40.867Z,46.70
2022-12-01T18:25:38.926Z,45.10
2022-12-01T18:28:37.412Z,45.40
2022-12-01T18:31:36.018Z,45.50
2022-12-01T18:34:34.981Z,47.60
2022-12-01T18:37:36.097Z,50.10
2022-12-01T18:40:34.620Z,47.60
2022-12-01T18:43:33.002Z,47.00
2022-12-01T18:46:31.513Z,45.70
2022-12-01T18:49:29.532Z,48.40
2022-12-01T18:52:27.508Z,48.40
2022-12-01T18:55:25.414Z,42.10
2022-12-01T18:58:22.917Z,46.70
2022-12-01T19:01:21.539Z,46.70
2022-12-01T19:04:21.259Z,44.60
2022-12-01T19:07:21.328Z,47.60
2022-12-01T19:13:21.314Z,42.10
2022-12-01T19:16:19.488Z,44.50
2022-12-01T19:19:17.670Z,45.60
2022-12-01T19:22:17.265Z,48.70
2022-12-01T19:25:15.362Z,44.80
2022-12-01T19:28:15.185Z,49.70
2022-12-01T19:31:13.598Z,51.40
2022-12-01T19:34:12.439Z,52.80
2022-12-01T19:37:11.775Z,43.20
2022-12-01T19:40:12.137Z,40.30
2022-12-01T19:43:11.163Z,42.90
2022-12-01T19:46:09.417Z,42.00
2022-12-01T19:49:10.868Z,45.20
2022-12-01T19:52:09.689Z,52.50
2022-12-01T19:55:09.993Z,45.20
2022-12-01T19:58:08.741Z,45.20
2022-12-01T20:01:07.868Z,45.80
2022-12-01T20:04:06.597Z,43.90
2022-12-01T20:07:04.663Z,50.80
2022-12-01T20:10:02.684Z,42.20
2022-12-01T20:13:01.918Z,45.40
2022-12-01T20:16:11.929Z,43.50
2022-12-01T20:19:11.234Z,46.20
2022-12-01T20:22:10.394Z,49.20
2022-12-01T20:25:10.717Z,42.30
2022-12-01T20:28:09.761Z,41.90
2022-12-01T20:31:07.727Z,46.40
2022-12-01T20:34:06.430Z,47.70
2022-12-01T20:37:05.473Z,47.70
2022-12-01T20:40:04.262Z,47.10
2022-12-01T20:43:02.983Z,44.20
2022-12-01T20:46:01.512Z,43.30
2022-12-01T20:49:00.153Z,43.70
2022-12-01T20:51:58.296Z,41.10
2022-12-01T20:54:56.368Z,45.10
2022-12-01T20:57:56.307Z,54.20
2022-12-01T21:00:56.353Z,47.20
2022-12-01T21:03:54.681Z,41.90
2022-12-01T21:06:54.147Z,45.20
2022-12-01T21:09:52.539Z,44.10
2022-12-01T21:13:07.722Z,45.60
2022-12-01T21:16:09.450Z,39.60
2022-12-01T21:19:11.540Z,42.90
2022-12-01T21:22:09.046Z,41.50
2022-12-01T21:25:06.525Z,42.00
2022-12-01T21:28:05.036Z,41.80
2022-12-01T21:31:03.017Z,43.00
2022-12-01T21:34:00.552Z,41.50
2022-12-01T21:36:59.202Z,44.10
2022-12-01T21:39:56.675Z,41.60
2022-12-01T21:42:54.149Z,38.40
2022-12-01T21:45:51.695Z,42.50
2022-12-01T21:48:49.589Z,43.50
2022-12-01T21:51:47.090Z,39.30
2022-12-01T21:54:44.573Z,43.50
2022-12-01T21:57:43.083Z,41.40
2022-12-01T22:00:41.303Z,45.90
2022-12-01T22:03:38.755Z,39.60
2022-12-01T22:06:36.227Z,40.40
2022-12-01T22:09:33.692Z,45.60
2022-12-01T22:12:32.054Z,44.20
2022-12-01T22:15:29.548Z,40.80
2022-12-01T22:18:27.018Z,42.60
2022-12-01T22:21:24.477Z,43.40
2022-12-01T22:24:21.955Z,41.40
2022-12-01T22:27:19.430Z,41.70
2022-12-01T22:30:16.881Z,39.30
2022-12-01T22:33:14.352Z,41.00
2022-12-01T22:36:12.215Z,40.50
2022-12-01T22:39:09.715Z,37.00
2022-12-01T22:42:07.176Z,42.90
2022-12-01T22:45:04.643Z,40.10
2022-12-01T22:48:02.102Z,40.60
2022-12-01T22:50:59.540Z,41.70
2022-12-01T22:53:57.061Z,40.30
2022-12-01T22:56:54.540Z,37.80
2022-12-01T22:59:52.022Z,41.60
2022-12-01T23:02:49.548Z,40.30
2022-12-01T23:05:47.072Z,37.00
2022-12-01T23:08:44.533Z,42.90
2022-12-01T23:11:42.022Z,37.70
2022-12-01T23:14:39.495Z,40.10
2022-12-01T23:17:39.093Z,40.50
2022-12-01T23:20:36.555Z,41.40
2022-12-01T23:23:34.019Z,38.40
2022-12-01T23:26:31.471Z,41.60
2022-12-01T23:29:28.953Z,42.40
2022-12-01T23:32:26.385Z,40.50
2022-12-01T23:35:23.849Z,35.70
2022-12-01T23:38:21.393Z,35.00
2022-12-01T23:41:23.980Z,38.60
2022-12-01T23:44:22.913Z,37.00
2022-12-01T23:47:20.369Z,43.60
2022-12-01T23:50:17.831Z,39.20
2022-12-01T23:53:15.319Z,39.50
2022-12-01T23:56:12.783Z,37.90
2022-12-01T23:59:10.249Z,40.50
